This is the latest recevied weather packets stored in our database for station/object DH5WR-10. If no packets are shown the sender has not sent any weather packets the latest 10 day(s).
| Time | Temp. | Humidity | Pressure | Rain* | Wind** | Luminosity | Snow |
|---|---|---|---|---|---|---|---|
| 1777598545 | 5° C | 48% | 1026.3 hPa | - | - | - | - |
| 1777597645 | 5° C | 47% | 1026.4 hPa | - | - | - | - |
| 1777596745 | 4.44° C | 49% | 1026.5 hPa | - | - | - | - |
| 1777595845 | 5° C | 46% | 1026.6 hPa | - | - | - | - |
| 1777594945 | 5° C | 48% | 1026.5 hPa | - | - | - | - |
| 1777594044 | 4.44° C | 49% | 1026.6 hPa | - | - | - | - |
| 1777593144 | 5° C | 47% | 1026.6 hPa | - | - | - | - |
| 1777592244 | 5.56° C | 45% | 1026.5 hPa | - | - | - | - |
| 1777591344 | 5.56° C | 44% | 1026.6 hPa | - | - | - | - |
| 1777590444 | 6.67° C | 41% | 1026.6 hPa | - | - | - | - |
| 1777589544 | 6.67° C | 39% | 1026.6 hPa | - | - | - | - |
| 1777588643 | 7.22° C | 38% | 1026.6 hPa | - | - | - | - |
| 1777587743 | 7.22° C | 38% | 1026.7 hPa | - | - | - | - |
| 1777586843 | 7.22° C | 38% | 1026.7 hPa | - | - | - | - |
| 1777585943 | 7.22° C | 38% | 1026.6 hPa | - | - | - | - |
| 1777585043 | 7.78° C | 38% | 1026.5 hPa | - | - | - | - |
| 1777584143 | 7.78° C | 37% | 1026.6 hPa | - | - | - | - |
| 1777583243 | 7.78° C | 37% | 1026.6 hPa | - | - | - | - |
| 1777582343 | 8.33° C | 37% | 1026.6 hPa | - | - | - | - |
| 1777581442 | 8.33° C | 36% | 1026.6 hPa | - | - | - | - |
| 1777580542 | 8.89° C | 35% | 1026.5 hPa | - | - | - | - |
| 1777579642 | 8.89° C | 35% | 1026.4 hPa | - | - | - | - |
| 1777578742 | 8.89° C | 34% | 1026.3 hPa | - | - | - | - |
| 1777577842 | 9.44° C | 34% | 1026.2 hPa | - | - | - | - |
| 1777576942 | 9.44° C | 32% | 1026 hPa | - | - | - | - |
* Rain since midnight (hover to see other rain measurements)
** Current wind speed in m/s (hover to see current wind gust speed)